createdAt,value
2022-12-18T00:01:22.795Z,87.00
2022-12-18T00:04:27.591Z,86.99
2022-12-18T00:07:30.023Z,87.03
2022-12-18T00:10:34.315Z,87.11
2022-12-18T00:13:38.300Z,87.00
2022-12-18T00:16:45.110Z,86.97
2022-12-18T00:19:48.409Z,87.00
2022-12-18T00:22:51.899Z,87.11
2022-12-18T00:25:54.898Z,87.46
2022-12-18T00:29:01.989Z,87.55
2022-12-18T00:32:07.086Z,87.88
2022-12-18T00:35:10.191Z,88.19
2022-12-18T00:38:13.058Z,88.29
2022-12-18T00:41:38.967Z,88.65
2022-12-18T00:44:42.240Z,88.80
2022-12-18T00:47:45.053Z,88.68
2022-12-18T00:50:49.918Z,88.16
2022-12-18T00:53:53.582Z,88.02
2022-12-18T00:56:56.698Z,87.84
2022-12-18T00:59:59.700Z,87.68
2022-12-18T01:03:02.646Z,87.62
2022-12-18T01:06:08.474Z,87.54
2022-12-18T01:09:11.080Z,87.59
2022-12-18T01:12:14.141Z,87.52
2022-12-18T01:15:18.879Z,87.71
2022-12-18T01:18:21.811Z,87.62
2022-12-18T01:21:25.408Z,87.61
2022-12-18T01:24:29.223Z,87.65
2022-12-18T01:27:32.045Z,87.75
2022-12-18T01:30:36.096Z,87.87
2022-12-18T01:33:40.450Z,87.94
2022-12-18T01:36:43.934Z,87.93
2022-12-18T01:39:46.786Z,87.90
2022-12-18T01:42:54.207Z,88.08
2022-12-18T01:46:00.791Z,88.00
2022-12-18T01:49:04.221Z,87.99
2022-12-18T01:52:07.296Z,88.16
2022-12-18T01:55:14.761Z,88.19
2022-12-18T01:58:20.405Z,88.26
2022-12-18T02:01:25.665Z,88.33
2022-12-18T02:04:31.029Z,88.37
2022-12-18T02:08:09.124Z,88.40
2022-12-18T02:11:25.755Z,88.44
2022-12-18T02:14:49.508Z,88.76
2022-12-18T02:17:59.587Z,88.91
2022-12-18T02:21:14.911Z,88.91
2022-12-18T02:24:23.469Z,88.90
2022-12-18T02:27:28.809Z,88.83
2022-12-18T02:30:36.345Z,88.89
2022-12-18T02:33:40.694Z,88.89
2022-12-18T02:36:46.916Z,89.13
2022-12-18T02:39:53.560Z,89.05
2022-12-18T02:43:07.741Z,88.83
2022-12-18T02:46:35.048Z,88.76
2022-12-18T02:49:57.268Z,88.75
2022-12-18T02:53:17.608Z,88.91
2022-12-18T02:56:27.797Z,88.54
2022-12-18T02:59:40.028Z,88.30
2022-12-18T03:02:54.100Z,88.84
2022-12-18T03:06:16.215Z,88.74
2022-12-18T03:09:28.019Z,88.81
2022-12-18T03:12:35.587Z,88.83
2022-12-18T03:15:43.477Z,89.10
2022-12-18T03:18:58.899Z,89.48
2022-12-18T03:22:05.884Z,89.75
2022-12-18T03:25:13.868Z,89.92
2022-12-18T03:28:22.226Z,89.35
2022-12-18T03:31:28.763Z,89.62
2022-12-18T03:34:38.314Z,89.82
2022-12-18T03:37:41.931Z,90.16
2022-12-18T03:40:54.102Z,89.92
2022-12-18T03:44:14.404Z,90.06
2022-12-18T03:47:26.738Z,90.64
2022-12-18T03:50:47.920Z,90.98
2022-12-18T03:54:01.639Z,91.00
2022-12-18T03:57:26.188Z,91.27
2022-12-18T04:00:32.855Z,91.84
2022-12-18T04:03:39.358Z,91.40
2022-12-18T04:06:44.817Z,91.95
2022-12-18T04:09:50.105Z,91.92
2022-12-18T04:12:58.213Z,91.33
2022-12-18T04:16:02.476Z,91.83
2022-12-18T04:19:05.845Z,91.92
2022-12-18T04:22:11.499Z,91.45
2022-12-18T04:25:15.343Z,91.72
2022-12-18T04:28:23.276Z,91.50
2022-12-18T04:31:26.178Z,91.42
2022-12-18T04:34:30.135Z,91.65
2022-12-18T04:37:33.738Z,92.61
2022-12-18T04:40:38.184Z,92.76
2022-12-18T04:43:41.784Z,92.18
2022-12-18T04:46:45.394Z,92.04
2022-12-18T04:49:49.378Z,92.22
2022-12-18T04:52:52.677Z,92.30
2022-12-18T04:56:10.678Z,92.39
2022-12-18T04:59:14.532Z,92.12
2022-12-18T05:02:17.188Z,91.64
2022-12-18T05:05:20.660Z,91.61
2022-12-18T05:08:25.637Z,91.57
2022-12-18T05:11:28.515Z,91.93
2022-12-18T05:14:31.341Z,92.35
2022-12-18T05:17:34.160Z,92.69
2022-12-18T05:20:37.255Z,93.29
2022-12-18T05:23:40.836Z,93.19
2022-12-18T05:26:44.191Z,93.14
2022-12-18T05:29:47.985Z,94.40
2022-12-18T05:32:50.640Z,94.36
2022-12-18T05:35:56.245Z,93.96
2022-12-18T05:38:59.207Z,93.84
2022-12-18T05:42:03.487Z,93.30
2022-12-18T05:45:08.730Z,93.08
2022-12-18T05:48:13.040Z,93.13
2022-12-18T05:51:24.935Z,93.23
2022-12-18T05:54:32.144Z,92.99
2022-12-18T05:57:35.125Z,92.72
2022-12-18T06:00:42.778Z,93.25
2022-12-18T06:03:46.655Z,94.38
2022-12-18T06:06:50.475Z,94.24
2022-12-18T06:09:53.772Z,94.02
2022-12-18T06:12:56.427Z,93.84
2022-12-18T06:16:07.152Z,93.62
2022-12-18T06:19:18.190Z,92.99
2022-12-18T06:22:21.689Z,93.00
2022-12-18T06:25:26.586Z,92.50
2022-12-18T06:28:32.846Z,92.59
2022-12-18T06:31:36.465Z,92.98
2022-12-18T06:34:39.886Z,92.67
2022-12-18T06:37:43.148Z,92.98
2022-12-18T06:40:51.646Z,92.85
2022-12-18T06:43:59.342Z,92.79
2022-12-18T06:47:04.862Z,92.23
2022-12-18T06:50:12.193Z,92.26
2022-12-18T06:53:15.977Z,92.25
2022-12-18T06:56:20.145Z,91.90
2022-12-18T06:59:23.088Z,90.08
2022-12-18T07:02:27.896Z,87.87
2022-12-18T07:05:34.065Z,85.79
2022-12-18T07:08:39.004Z,83.63
2022-12-18T07:11:46.859Z,81.96
2022-12-18T07:14:50.189Z,79.84
2022-12-18T07:17:56.175Z,78.71
2022-12-18T07:21:05.565Z,78.40
2022-12-18T07:24:16.946Z,76.67
2022-12-18T07:27:21.169Z,75.82
2022-12-18T07:30:25.003Z,73.65
2022-12-18T07:33:32.896Z,72.37
2022-12-18T07:36:36.335Z,72.38
2022-12-18T07:39:50.063Z,72.97
2022-12-18T07:42:55.763Z,72.97
2022-12-18T07:46:01.072Z,73.12
2022-12-18T07:49:06.878Z,73.01
2022-12-18T07:52:10.676Z,71.54
2022-12-18T07:55:13.496Z,70.16
2022-12-18T07:58:24.799Z,69.80
2022-12-18T08:01:40.944Z,68.34
2022-12-18T08:04:55.910Z,67.97
2022-12-18T08:08:03.670Z,67.82
2022-12-18T08:11:10.015Z,68.02
2022-12-18T08:14:13.309Z,66.21
2022-12-18T08:17:17.561Z,66.34
2022-12-18T08:20:27.891Z,65.77
2022-12-18T08:23:32.012Z,66.01
2022-12-18T08:26:40.059Z,65.60
2022-12-18T08:29:46.478Z,66.76
2022-12-18T08:33:02.008Z,66.18
2022-12-18T08:36:06.626Z,64.31
2022-12-18T08:39:14.057Z,64.61
2022-12-18T08:42:37.530Z,64.04
2022-12-18T08:45:43.037Z,65.44
2022-12-18T08:48:57.183Z,64.59
2022-12-18T08:52:01.087Z,66.80
2022-12-18T08:55:04.535Z,66.71
2022-12-18T08:58:08.901Z,66.53
2022-12-18T09:01:17.525Z,68.00
2022-12-18T09:04:30.749Z,68.21
2022-12-18T09:07:38.434Z,67.93
2022-12-18T09:10:53.845Z,69.12
2022-12-18T09:13:58.956Z,67.37
2022-12-18T09:17:09.484Z,65.28
2022-12-18T09:20:15.022Z,64.75
2022-12-18T09:23:20.835Z,64.85
2022-12-18T09:26:36.893Z,62.96
2022-12-18T09:29:54.064Z,63.52
2022-12-18T09:33:04.370Z,62.52
2022-12-18T09:36:11.847Z,64.42
2022-12-18T09:39:16.143Z,65.05
2022-12-18T09:42:23.268Z,63.88
2022-12-18T09:45:30.247Z,64.14
2022-12-18T09:48:51.791Z,64.60
2022-12-18T09:52:09.716Z,65.57
2022-12-18T09:55:41.309Z,66.64
2022-12-18T09:59:04.790Z,65.73
2022-12-18T10:02:20.178Z,68.00
2022-12-18T10:05:49.163Z,67.12
2022-12-18T10:08:58.138Z,66.66
2022-12-18T10:12:24.881Z,66.34
2022-12-18T10:15:35.282Z,67.27
2022-12-18T10:19:00.853Z,67.69
2022-12-18T10:22:21.873Z,67.23
2022-12-18T10:25:37.880Z,67.98
2022-12-18T10:28:46.854Z,68.65
2022-12-18T10:31:51.156Z,69.50
2022-12-18T10:35:02.376Z,69.86
2022-12-18T10:38:18.022Z,70.03
2022-12-18T10:41:27.537Z,70.10
2022-12-18T10:44:38.776Z,70.15
2022-12-18T10:47:55.768Z,69.17
2022-12-18T10:51:12.107Z,70.37
2022-12-18T10:54:34.036Z,70.18
2022-12-18T10:57:42.804Z,70.23
2022-12-18T11:00:45.655Z,70.21
2022-12-18T11:04:01.663Z,69.79
2022-12-18T11:07:12.352Z,68.14
2022-12-18T11:10:20.586Z,66.66
2022-12-18T11:13:29.099Z,67.63
2022-12-18T11:17:03.035Z,68.74
2022-12-18T11:20:30.232Z,68.71
2022-12-18T11:23:40.994Z,68.33
2022-12-18T11:26:45.467Z,68.39
2022-12-18T11:29:56.810Z,68.63
2022-12-18T11:33:19.907Z,67.38
2022-12-18T11:36:26.882Z,67.83
2022-12-18T11:39:42.168Z,67.87
2022-12-18T11:43:09.928Z,68.28
2022-12-18T11:46:21.578Z,67.98
2022-12-18T11:49:36.281Z,68.26
2022-12-18T11:52:41.588Z,68.36
2022-12-18T11:56:25.861Z,67.57
2022-12-18T11:59:51.863Z,67.84
2022-12-18T12:02:59.161Z,68.26
2022-12-18T12:07:00.064Z,68.86
2022-12-18T12:10:40.035Z,69.15
2022-12-18T12:14:11.855Z,68.36
2022-12-18T12:17:41.779Z,68.85
2022-12-18T12:21:10.891Z,69.10
2022-12-18T12:24:57.762Z,69.59
2022-12-18T12:28:52.834Z,68.92
2022-12-18T12:32:10.505Z,69.59
2022-12-18T12:35:27.062Z,69.30
2022-12-18T12:38:51.425Z,69.58
2022-12-18T12:42:15.785Z,69.02
2022-12-18T12:45:32.823Z,68.59
2022-12-18T12:48:46.817Z,68.21
2022-12-18T12:52:18.899Z,67.56
2022-12-18T12:55:27.944Z,67.00
2022-12-18T12:58:37.911Z,67.45
2022-12-18T13:02:09.913Z,67.29
2022-12-18T13:05:21.981Z,67.58
2022-12-18T13:08:28.138Z,67.48
2022-12-18T13:12:06.919Z,67.58
2022-12-18T13:15:24.790Z,66.73
2022-12-18T13:18:30.214Z,66.59
2022-12-18T13:21:36.767Z,66.67
2022-12-18T13:24:44.511Z,66.53
2022-12-18T13:28:19.914Z,67.29
2022-12-18T13:31:42.352Z,67.60
2022-12-18T13:35:27.843Z,68.85
2022-12-18T13:38:45.035Z,68.99
2022-12-18T13:41:51.405Z,69.66
2022-12-18T13:45:00.000Z,70.28
2022-12-18T13:48:34.701Z,69.60
2022-12-18T13:51:45.638Z,69.85
2022-12-18T13:54:57.492Z,70.57
2022-12-18T13:58:07.126Z,69.77
2022-12-18T14:01:24.684Z,69.97
2022-12-18T14:04:39.795Z,69.75
2022-12-18T14:07:49.229Z,69.85
2022-12-18T14:11:13.818Z,69.73
2022-12-18T14:14:24.888Z,69.92
2022-12-18T14:17:35.012Z,70.62
2022-12-18T14:20:52.602Z,70.79
2022-12-18T14:24:06.028Z,71.58
2022-12-18T14:27:38.746Z,71.49
2022-12-18T14:30:58.917Z,71.63
2022-12-18T14:34:05.958Z,72.25
2022-12-18T14:37:16.870Z,73.25
2022-12-18T14:40:21.979Z,73.95
2022-12-18T14:43:30.063Z,74.90
2022-12-18T14:46:52.736Z,75.37
2022-12-18T14:53:33.040Z,76.76
2022-12-18T14:56:46.848Z,77.85
2022-12-18T14:59:54.336Z,78.36
2022-12-18T15:03:01.257Z,79.42
2022-12-18T15:06:27.577Z,79.63
2022-12-18T15:10:21.834Z,80.17
2022-12-18T15:13:26.251Z,80.95
2022-12-18T15:16:30.490Z,81.89
2022-12-18T15:19:41.724Z,82.61
2022-12-18T15:22:52.171Z,83.09
2022-12-18T15:26:10.009Z,83.40
2022-12-18T15:29:31.830Z,83.97
2022-12-18T15:32:50.812Z,83.99
2022-12-18T15:36:06.568Z,84.33
2022-12-18T15:39:14.243Z,84.38
2022-12-18T15:42:36.619Z,84.63
2022-12-18T15:45:56.080Z,85.31
2022-12-18T15:49:02.477Z,85.50
2022-12-18T15:52:08.316Z,85.52
2022-12-18T15:55:37.003Z,85.66
2022-12-18T16:02:16.984Z,86.21
2022-12-18T16:05:21.672Z,85.87
2022-12-18T16:08:43.084Z,86.21
2022-12-18T16:11:51.757Z,86.18
2022-12-18T16:14:59.837Z,85.94
2022-12-18T16:18:13.329Z,86.60
2022-12-18T16:21:17.222Z,87.29
2022-12-18T16:24:37.241Z,86.99
2022-12-18T16:27:46.722Z,87.08
2022-12-18T16:30:54.171Z,87.29
2022-12-18T16:34:40.785Z,87.60
2022-12-18T16:41:37.712Z,89.69
2022-12-18T16:44:45.759Z,89.45
2022-12-18T16:47:52.892Z,90.05
2022-12-18T16:51:03.967Z,90.04
2022-12-18T16:54:27.767Z,90.64
2022-12-18T16:57:31.893Z,89.99
2022-12-18T17:00:43.000Z,90.55
2022-12-18T17:03:56.660Z,90.09
2022-12-18T17:07:13.046Z,89.99
2022-12-18T17:10:17.322Z,89.89
2022-12-18T17:13:25.560Z,91.34
2022-12-18T17:16:29.851Z,92.35
2022-12-18T17:19:40.754Z,92.32
2022-12-18T17:22:43.984Z,92.21
2022-12-18T17:25:57.875Z,92.37
2022-12-18T17:29:06.044Z,92.42
2022-12-18T17:32:12.748Z,93.05
2022-12-18T17:35:16.446Z,92.36
2022-12-18T17:38:23.991Z,92.00
2022-12-18T17:41:33.240Z,91.66
2022-12-18T17:44:37.645Z,91.19
2022-12-18T17:47:40.860Z,91.26
2022-12-18T17:50:47.668Z,91.93
2022-12-18T17:53:57.385Z,92.67
2022-12-18T17:57:14.672Z,92.55
2022-12-18T18:00:21.929Z,92.34
2022-12-18T18:03:27.124Z,93.32
2022-12-18T18:06:38.996Z,94.02
2022-12-18T18:09:48.109Z,93.39
2022-12-18T18:13:14.254Z,92.69
2022-12-18T18:16:22.977Z,93.53
2022-12-18T18:19:32.925Z,93.19
2022-12-18T18:22:40.867Z,92.51
2022-12-18T18:25:53.634Z,92.24
2022-12-18T18:29:07.867Z,92.65
2022-12-18T18:32:19.758Z,92.39
2022-12-18T18:35:52.399Z,92.05
2022-12-18T18:39:06.685Z,92.13
2022-12-18T18:42:19.663Z,91.43
2022-12-18T18:45:27.972Z,91.35
2022-12-18T18:48:39.749Z,91.55
2022-12-18T18:51:51.822Z,91.76
2022-12-18T18:55:12.046Z,91.93
2022-12-18T18:58:23.329Z,91.71
2022-12-18T19:01:39.816Z,91.56
2022-12-18T19:04:51.972Z,92.07
2022-12-18T19:07:57.761Z,92.07
2022-12-18T19:11:31.745Z,91.55
2022-12-18T19:14:39.451Z,91.63
2022-12-18T19:17:47.437Z,92.56
2022-12-18T19:21:05.629Z,92.24
2022-12-18T19:24:14.123Z,92.31
2022-12-18T19:27:20.948Z,93.14
2022-12-18T19:30:26.528Z,93.92
2022-12-18T19:33:43.676Z,93.71
2022-12-18T19:37:00.150Z,93.63
2022-12-18T19:40:19.788Z,93.67
2022-12-18T19:43:30.708Z,93.03
2022-12-18T19:46:34.602Z,92.90
2022-12-18T19:49:44.347Z,92.83
2022-12-18T19:52:57.010Z,92.85
2022-12-18T19:56:14.887Z,92.63
2022-12-18T19:59:19.482Z,92.26
2022-12-18T20:02:26.866Z,91.99
2022-12-18T20:05:35.800Z,92.27
2022-12-18T20:08:44.160Z,92.51
2022-12-18T20:11:55.858Z,94.16
2022-12-18T20:15:05.701Z,94.63
2022-12-18T20:18:10.900Z,93.87
2022-12-18T20:21:14.860Z,93.38
2022-12-18T20:24:37.752Z,93.40
2022-12-18T20:27:44.892Z,93.40
2022-12-18T20:31:03.045Z,92.78
2022-12-18T20:34:09.492Z,92.17
2022-12-18T20:37:31.718Z,92.26
2022-12-18T20:40:36.649Z,92.44
2022-12-18T20:43:44.700Z,92.09
2022-12-18T20:46:58.048Z,92.15
2022-12-18T20:50:16.700Z,92.11
2022-12-18T20:53:19.757Z,91.80
2022-12-18T20:56:25.188Z,92.04
2022-12-18T20:59:37.683Z,92.32
2022-12-18T21:02:43.828Z,92.11
2022-12-18T21:05:46.866Z,91.87
2022-12-18T21:08:50.849Z,92.05
2022-12-18T21:12:20.954Z,92.02
2022-12-18T21:15:32.885Z,92.06
2022-12-18T21:18:57.949Z,92.06
2022-12-18T21:22:02.725Z,92.40
2022-12-18T21:25:05.872Z,92.61
2022-12-18T21:28:09.443Z,93.00
2022-12-18T21:31:13.879Z,93.00
2022-12-18T21:34:25.610Z,93.18
2022-12-18T21:37:30.525Z,93.20
2022-12-18T21:40:34.918Z,94.29
2022-12-18T21:44:02.817Z,94.74
2022-12-18T21:47:22.188Z,94.92
2022-12-18T21:50:34.749Z,93.82
2022-12-18T21:53:43.063Z,93.70
2022-12-18T21:56:58.670Z,94.65
2022-12-18T22:00:02.271Z,95.10
2022-12-18T22:03:18.771Z,94.79
2022-12-18T22:06:25.790Z,94.49
2022-12-18T22:09:37.654Z,94.14
2022-12-18T22:12:54.867Z,94.39
2022-12-18T22:15:59.213Z,94.11
2022-12-18T22:19:05.723Z,94.73
2022-12-18T22:22:08.397Z,94.70
2022-12-18T22:25:16.124Z,94.74
2022-12-18T22:28:39.663Z,94.52
2022-12-18T22:31:45.891Z,94.16
2022-12-18T22:34:49.196Z,93.97
2022-12-18T22:38:08.621Z,94.37
2022-12-18T22:41:11.752Z,94.89
2022-12-18T22:44:15.007Z,95.65
2022-12-18T22:47:30.068Z,96.18
2022-12-18T22:50:34.894Z,96.05
2022-12-18T22:53:39.005Z,96.02
2022-12-18T22:56:51.646Z,96.10
2022-12-18T22:59:57.888Z,96.33
2022-12-18T23:03:07.430Z,96.52
2022-12-18T23:06:10.587Z,96.79
2022-12-18T23:09:20.853Z,96.74
2022-12-18T23:12:24.012Z,96.67
2022-12-18T23:15:28.157Z,96.81
2022-12-18T23:18:37.466Z,96.83
2022-12-18T23:21:42.519Z,96.85
2022-12-18T23:24:46.641Z,96.64
2022-12-18T23:27:50.863Z,96.87
2022-12-18T23:30:54.077Z,96.97
2022-12-18T23:33:59.297Z,97.29
2022-12-18T23:37:03.912Z,97.42
2022-12-18T23:40:07.813Z,97.25
2022-12-18T23:43:10.435Z,97.57
2022-12-18T23:46:26.090Z,97.36
2022-12-18T23:49:28.771Z,97.36
2022-12-18T23:52:31.930Z,97.29
2022-12-18T23:55:40.915Z,97.02
2022-12-18T23:58:45.451Z,96.82
